Time;durP1;ratioP1;P1;durP2;ratioP2;P2;SDS_P1;SDS_P2;PMS_P1;PMS_P2;Temp;Humidity;BMP_temperature;BMP_pressure;BME280_temperature;BME280_humidity;BME280_pressure;Samples;Min_cycle;Max_cycle;Signal;HPM_P1;HPM_P2
2022/09/17 00:00:17;;;;;;;2.22;0.60;;;13.80;95.90;;;;;;5035000;28;20033;-69
2022/09/17 00:02:46;;;;;;;5.30;1.02;;;13.80;96.00;;;;;;5035697;28;20625;-69
2022/09/17 00:05:12;;;;;;;5.88;1.15;;;13.80;96.00;;;;;;5041262;28;20028;-74
2022/09/17 00:07:38;;;;;;;1.77;0.40;;;13.90;96.00;;;;;;5040981;28;20103;-69
2022/09/17 00:10:04;;;;;;;2.08;0.50;;;13.90;96.00;;;;;;5038308;28;20044;-69
2022/09/17 00:12:31;;;;;;;4.28;0.90;;;13.90;96.00;;;;;;5038549;28;20047;-69
2022/09/17 00:14:56;;;;;;;4.35;0.85;;;13.90;95.90;;;;;;5037600;28;20504;-69
2022/09/17 00:17:22;;;;;;;2.83;0.80;;;13.90;96.10;;;;;;5036187;28;20025;-70
2022/09/17 00:19:48;;;;;;;2.95;0.70;;;13.90;96.00;;;;;;5033377;28;20036;-70
2022/09/17 00:22:14;;;;;;;4.07;0.75;;;13.90;95.90;;;;;;5036610;28;20037;-70
2022/09/17 00:24:40;;;;;;;1.40;0.60;;;13.90;95.90;;;;;;5041358;28;20128;-70
2022/09/17 00:27:06;;;;;;;3.85;0.90;;;13.90;95.90;;;;;;5039388;28;20136;-69
2022/09/17 00:29:32;;;;;;;4.57;0.90;;;13.90;96.00;;;;;;5039155;28;20154;-69
2022/09/17 00:31:58;;;;;;;5.25;0.80;;;13.90;96.00;;;;;;5035927;28;20051;-69
2022/09/17 00:34:24;;;;;;;6.35;1.23;;;13.90;95.70;;;;;;5036891;28;20033;-69
2022/09/17 00:36:50;;;;;;;2.08;0.73;;;13.90;95.80;;;;;;5033929;28;20037;-69
2022/09/17 00:39:15;;;;;;;2.38;0.70;;;14.00;95.80;;;;;;5037294;28;20120;-69
2022/09/17 00:41:42;;;;;;;3.47;0.88;;;14.00;95.90;;;;;;5040937;28;20086;-69
2022/09/17 00:44:40;;;;;;;5.38;0.98;;;14.00;95.90;;;;;;5044070;28;20040;-69
2022/09/17 00:47:35;;;;;;;3.60;0.47;;;14.00;95.90;;;;;;5041647;28;20037;-70
2022/09/17 00:50:11;;;;;;;3.40;1.17;;;14.00;95.90;;;;;;5035550;28;20531;-69
2022/09/17 00:52:44;;;;;;;1.30;0.65;;;14.00;95.80;;;;;;5040855;28;20017;-71
2022/09/17 00:55:44;;;;;;;4.60;0.88;;;14.10;95.90;;;;;;5037731;28;20040;-69
2022/09/17 00:58:13;;;;;;;4.22;0.80;;;14.10;96.00;;;;;;5036207;28;20033;-69
2022/09/17 01:00:39;;;;;;;4.55;1.02;;;14.10;95.90;;;;;;5041471;28;20021;-69
2022/09/17 01:03:06;;;;;;;2.58;0.70;;;14.00;95.70;;;;;;5043425;28;20039;-70
2022/09/17 01:05:53;;;;;;;5.68;1.23;;;14.10;95.60;;;;;;5043197;28;20025;-70
2022/09/17 01:08:47;;;;;;;2.10;0.70;;;14.10;95.70;;;;;;5041349;28;20093;-69
2022/09/17 01:11:33;;;;;;;5.75;0.63;;;14.10;95.70;;;;;;5038627;28;20045;-70
2022/09/17 01:14:20;;;;;;;4.13;1.00;;;14.10;95.70;;;;;;5036235;28;20501;-69
2022/09/17 01:17:04;;;;;;;6.68;0.98;;;14.10;95.60;;;;;;5038479;28;20405;-70
2022/09/17 01:19:48;;;;;;;5.13;0.95;;;14.10;95.70;;;;;;5041513;28;20037;-69
2022/09/17 01:22:26;;;;;;;1.25;0.70;;;14.10;95.70;;;;;;5043165;28;20410;-69
2022/09/17 01:25:23;;;;;;;2.50;0.93;;;14.10;95.70;;;;;;5040530;28;20021;-68
2022/09/17 01:28:10;;;;;;;2.78;0.70;;;14.20;95.80;;;;;;5039252;28;20847;-69
2022/09/17 01:31:01;;;;;;;2.53;0.80;;;14.20;95.90;;;;;;5038318;28;20610;-69
2022/09/17 01:34:04;;;;;;;8.02;1.65;;;14.30;96.20;;;;;;5038175;28;20445;-70
2022/09/17 01:36:39;;;;;;;5.32;1.40;;;14.30;95.90;;;;;;5037650;28;20029;-69
2022/09/17 01:39:07;;;;;;;2.90;0.90;;;14.30;95.90;;;;;;5041571;28;20064;-70
2022/09/17 01:41:51;;;;;;;3.85;1.00;;;14.30;95.80;;;;;;5043090;28;20025;-69
2022/09/17 01:44:35;;;;;;;3.20;0.98;;;14.30;95.80;;;;;;5040063;28;20029;-69
2022/09/17 01:47:12;;;;;;;8.35;1.00;;;14.30;95.70;;;;;;5037170;28;20033;-69
2022/09/17 01:49:39;;;;;;;6.82;1.40;;;14.30;95.60;;;;;;5038278;28;20044;-70
2022/09/17 01:52:08;;;;;;;8.95;1.23;;;14.30;95.30;;;;;;5034472;28;20057;-70
2022/09/17 01:54:40;;;;;;;5.70;1.40;;;14.30;95.30;;;;;;5036914;28;20024;-69
2022/09/17 01:57:17;;;;;;;6.15;1.13;;;14.30;95.40;;;;;;5037583;28;20041;-70
2022/09/17 02:00:09;;;;;;;5.55;1.05;;;14.30;95.40;;;;;;5043396;28;20037;-68
2022/09/17 02:03:05;;;;;;;2.35;0.90;;;14.30;95.60;;;;;;5041353;28;20088;-70
2022/09/17 02:05:51;;;;;;;6.47;1.15;;;14.30;95.60;;;;;;5037930;28;20037;-70
2022/09/17 02:08:25;;;;;;;6.80;1.60;;;14.30;95.70;;;;;;5037969;28;20048;-68
2022/09/17 02:11:05;;;;;;;6.47;1.45;;;14.40;95.70;;;;;;5036007;28;20075;-70
2022/09/17 02:13:42;;;;;;;2.83;0.98;;;14.40;95.50;;;;;;5036046;28;20045;-69
2022/09/17 02:16:21;;;;;;;1.77;0.90;;;14.40;95.60;;;;;;5041455;28;20051;-69
2022/09/17 02:19:17;;;;;;;2.83;1.10;;;14.40;95.70;;;;;;5042661;28;20048;-69
2022/09/17 02:21:54;;;;;;;5.68;1.17;;;14.40;95.60;;;;;;5040436;28;20029;-69
2022/09/17 02:24:30;;;;;;;2.88;1.10;;;14.40;95.50;;;;;;5039214;28;20040;-69
2022/09/17 02:27:16;;;;;;;5.15;1.35;;;14.40;95.50;;;;;;5037195;28;20029;-69
2022/09/17 02:29:43;;;;;;;3.75;1.10;;;14.40;95.50;;;;;;5036600;28;20047;-71
2022/09/17 02:32:10;;;;;;;3.08;0.68;;;14.40;95.40;;;;;;5033823;28;20046;-71
2022/09/17 02:34:36;;;;;;;3.95;1.00;;;14.50;95.40;;;;;;5039169;28;20726;-70
2022/09/17 02:37:03;;;;;;;2.83;0.82;;;14.50;95.50;;;;;;5041842;28;20044;-70
2022/09/17 02:39:29;;;;;;;3.88;0.73;;;14.50;95.50;;;;;;5041508;28;20072;-70
2022/09/17 02:42:10;;;;;;;5.03;1.05;;;14.50;95.50;;;;;;5036302;28;20064;-71
2022/09/17 02:45:02;;;;;;;3.53;1.00;;;14.40;95.60;;;;;;5040753;28;20150;-70
2022/09/17 02:47:33;;;;;;;5.75;1.20;;;14.50;95.50;;;;;;5036701;28;20036;-71
2022/09/17 02:50:21;;;;;;;6.57;1.20;;;14.50;95.60;;;;;;5033068;28;20175;-70
2022/09/17 02:53:14;;;;;;;5.63;1.27;;;14.50;95.60;;;;;;5037721;28;20033;-69
2022/09/17 02:56:02;;;;;;;4.32;1.02;;;14.50;95.60;;;;;;5035711;28;20020;-71
2022/09/17 02:58:55;;;;;;;4.70;1.15;;;14.50;95.80;;;;;;5036662;28;20448;-71
2022/09/17 03:01:30;;;;;;;6.18;1.15;;;14.50;95.40;;;;;;5038579;28;20120;-70
2022/09/17 03:04:00;;;;;;;5.20;1.27;;;14.50;95.70;;;;;;5036192;28;20144;-71
2022/09/17 03:06:26;;;;;;;4.57;1.30;;;14.50;95.40;;;;;;5036527;28;20037;-71
2022/09/17 03:08:52;;;;;;;4.00;1.10;;;14.50;95.50;;;;;;5034540;28;20033;-71
2022/09/17 03:11:17;;;;;;;5.80;1.50;;;14.50;95.50;;;;;;5034792;28;20045;-71
2022/09/17 03:13:43;;;;;;;2.63;1.27;;;14.50;95.50;;;;;;5042112;28;20040;-71
2022/09/17 03:16:09;;;;;;;4.63;1.23;;;14.50;95.40;;;;;;5041876;28;20033;-72
2022/09/17 03:18:35;;;;;;;5.43;1.25;;;14.40;95.40;;;;;;5041485;28;20104;-70
2022/09/17 03:21:01;;;;;;;5.05;1.02;;;14.50;95.60;;;;;;5038044;28;20120;-70
2022/09/17 03:23:27;;;;;;;4.57;1.40;;;14.40;95.50;;;;;;5038826;28;20037;-71
2022/09/17 03:25:54;;;;;;;2.38;1.20;;;14.40;95.40;;;;;;5036639;28;20070;-72
2022/09/17 03:28:19;;;;;;;3.17;1.15;;;14.40;95.40;;;;;;5034303;28;20636;-71
2022/09/17 03:30:45;;;;;;;3.92;1.17;;;14.40;95.40;;;;;;5038648;28;20120;-71
2022/09/17 03:33:12;;;;;;;3.65;1.10;;;14.40;95.30;;;;;;5040664;28;20029;-71
2022/09/17 03:35:42;;;;;;;6.70;1.35;;;14.40;95.40;;;;;;5039539;28;20756;-70
2022/09/17 03:38:08;;;;;;;4.78;1.08;;;14.40;95.50;;;;;;5037496;28;20036;-70
2022/09/17 03:40:33;;;;;;;2.45;0.95;;;14.40;95.50;;;;;;5037399;28;20025;-71
2022/09/17 03:42:59;;;;;;;6.68;1.25;;;14.40;95.60;;;;;;5033764;28;20038;-71
2022/09/17 03:45:25;;;;;;;4.70;1.02;;;14.40;95.70;;;;;;5035056;28;20037;-71
2022/09/17 03:47:50;;;;;;;4.50;1.10;;;14.40;95.60;;;;;;5033129;28;20032;-70
2022/09/17 03:50:16;;;;;;;4.35;1.20;;;14.40;95.70;;;;;;5037736;28;20116;-70
2022/09/17 03:52:43;;;;;;;5.50;1.02;;;14.40;95.60;;;;;;5041820;28;20057;-70
2022/09/17 03:55:09;;;;;;;5.65;1.45;;;14.40;95.50;;;;;;5039112;28;20129;-71
2022/09/17 03:57:35;;;;;;;5.38;1.00;;;14.40;95.50;;;;;;5039621;28;20047;-70
2022/09/17 04:00:01;;;;;;;4.88;1.00;;;14.40;95.60;;;;;;5036784;28;20839;-70
2022/09/17 04:02:26;;;;;;;5.95;1.35;;;14.40;95.50;;;;;;5038659;28;20163;-71
2022/09/17 04:04:52;;;;;;;5.68;1.30;;;14.40;95.50;;;;;;5033716;28;20036;-71
2022/09/17 04:07:18;;;;;;;2.22;1.02;;;14.40;95.60;;;;;;5034476;28;20060;-71
2022/09/17 04:09:44;;;;;;;5.03;1.50;;;14.40;95.70;;;;;;5038652;28;20061;-71
2022/09/17 04:12:10;;;;;;;6.32;1.42;;;14.40;95.80;;;;;;5040275;28;20529;-72
2022/09/17 04:14:35;;;;;;;2.47;0.95;;;14.40;95.70;;;;;;5039336;28;20476;-70
2022/09/17 04:17:01;;;;;;;2.67;0.90;;;14.40;95.80;;;;;;5038611;28;20029;-71
2022/09/17 04:19:27;;;;;;;3.50;1.23;;;14.40;95.70;;;;;;5038225;28;20082;-71
2022/09/17 04:21:53;;;;;;;4.75;1.48;;;14.40;95.80;;;;;;5034757;28;20228;-71
2022/09/17 04:24:18;;;;;;;3.80;1.52;;;14.40;95.70;;;;;;5034455;28;20118;-71
2022/09/17 04:26:44;;;;;;;4.40;1.20;;;14.40;95.80;;;;;;5034468;28;20064;-71
2022/09/17 04:29:10;;;;;;;4.65;1.23;;;14.50;96.10;;;;;;5041360;28;20043;-70
2022/09/17 04:31:36;;;;;;;3.55;1.08;;;14.50;95.80;;;;;;5040786;28;20029;-71
2022/09/17 04:34:01;;;;;;;4.55;1.10;;;14.50;95.90;;;;;;5038091;28;20723;-71
2022/09/17 04:36:27;;;;;;;3.78;1.00;;;14.50;95.80;;;;;;5038219;28;20124;-71
2022/09/17 04:38:53;;;;;;;2.03;0.98;;;14.50;95.80;;;;;;5035660;28;20111;-70
2022/09/17 04:41:19;;;;;;;3.72;1.20;;;14.50;95.90;;;;;;5035181;28;20038;-70
2022/09/17 04:43:45;;;;;;;3.53;1.30;;;14.50;95.90;;;;;;5033767;28;20029;-71
2022/09/17 04:46:10;;;;;;;5.53;1.25;;;14.50;95.90;;;;;;5035726;28;20035;-70
2022/09/17 04:48:36;;;;;;;4.57;1.38;;;14.50;95.90;;;;;;5036083;28;20075;-71
2022/09/17 04:51:02;;;;;;;3.63;1.10;;;14.50;95.90;;;;;;5038817;28;20033;-70
2022/09/17 04:53:28;;;;;;;4.15;1.50;;;14.50;96.00;;;;;;5039093;28;20037;-71
2022/09/17 04:55:54;;;;;;;2.67;1.00;;;14.50;96.10;;;;;;5036239;28;20033;-71
2022/09/17 04:58:19;;;;;;;4.95;1.02;;;14.50;96.10;;;;;;5036556;28;20649;-71
2022/09/17 05:00:45;;;;;;;3.97;1.33;;;14.60;96.10;;;;;;5034745;28;20029;-70
2022/09/17 05:03:11;;;;;;;3.20;1.23;;;14.60;96.10;;;;;;5031843;28;20116;-70
2022/09/17 05:05:36;;;;;;;6.68;1.67;;;14.60;96.20;;;;;;5037305;28;20504;-68
2022/09/17 05:08:02;;;;;;;4.80;1.30;;;14.60;96.50;;;;;;5039744;28;20094;-69
2022/09/17 05:10:28;;;;;;;7.22;1.58;;;14.50;96.30;;;;;;5039387;28;20037;-69
2022/09/17 05:12:55;;;;;;;4.07;1.42;;;14.50;96.40;;;;;;5037348;28;20061;-70
2022/09/17 05:15:22;;;;;;;5.15;1.50;;;14.50;96.50;;;;;;5038346;28;20431;-71
2022/09/17 05:17:49;;;;;;;6.35;1.27;;;14.50;96.70;;;;;;5034758;28;20069;-70
2022/09/17 05:20:15;;;;;;;6.40;1.58;;;14.50;96.80;;;;;;5033345;28;20397;-71
2022/09/17 05:22:47;;;;;;;7.35;1.63;;;14.50;96.90;;;;;;5032848;28;20025;-69
2022/09/17 05:25:15;;;;;;;5.35;1.80;;;14.40;97.00;;;;;;5038257;28;20040;-70
2022/09/17 05:27:41;;;;;;;5.63;1.52;;;14.40;97.00;;;;;;5041994;28;20078;-69
2022/09/17 05:30:08;;;;;;;15.02;2.10;;;14.40;97.10;;;;;;5042281;28;20040;-69
2022/09/17 05:32:35;;;;;;;7.53;1.85;;;14.40;97.20;;;;;;5041668;28;20052;-70
2022/09/17 05:35:02;;;;;;;11.57;2.13;;;14.40;97.20;;;;;;5037435;28;20037;-70
2022/09/17 05:37:28;;;;;;;11.65;2.60;;;14.40;97.20;;;;;;5039743;28;20033;-70
2022/09/17 05:39:54;;;;;;;11.27;2.22;;;14.50;97.20;;;;;;5035849;28;20048;-70
2022/09/17 05:42:19;;;;;;;9.60;1.70;;;14.50;97.10;;;;;;5036360;28;20039;-69
2022/09/17 05:44:45;;;;;;;9.57;1.80;;;14.50;97.10;;;;;;5043793;28;20397;-71
2022/09/17 05:47:11;;;;;;;12.32;2.58;;;14.40;97.10;;;;;;5042199;28;20029;-70
2022/09/17 05:49:37;;;;;;;8.43;1.77;;;14.50;97.10;;;;;;5043431;28;20136;-70
2022/09/17 05:52:03;;;;;;;10.95;1.70;;;14.50;97.10;;;;;;5038239;28;20032;-70
2022/09/17 05:54:29;;;;;;;8.70;1.80;;;14.50;97.00;;;;;;5038940;28;20032;-70
2022/09/17 05:56:55;;;;;;;5.10;1.35;;;14.40;97.10;;;;;;5035840;28;20044;-71
2022/09/17 05:59:21;;;;;;;7.18;1.73;;;14.50;97.10;;;;;;5036657;28;20037;-69
2022/09/17 06:01:47;;;;;;;12.40;2.13;;;14.50;97.10;;;;;;5036554;28;20426;-71
2022/09/17 06:04:13;;;;;;;10.70;2.13;;;14.50;97.00;;;;;;5043026;28;20029;-73
2022/09/17 06:06:40;;;;;;;10.45;1.92;;;14.60;96.80;;;;;;5041766;28;20057;-70
2022/09/17 06:09:09;;;;;;;8.35;2.00;;;14.60;96.70;;;;;;5039817;28;20745;-70
2022/09/17 06:11:37;;;;;;;9.30;2.08;;;14.60;96.50;;;;;;5040403;28;20028;-70
2022/09/17 06:14:03;;;;;;;8.63;1.90;;;14.60;96.30;;;;;;5035983;28;20072;-69
2022/09/17 06:16:28;;;;;;;10.25;2.40;;;14.50;96.30;;;;;;5040364;28;20036;-70
2022/09/17 06:18:54;;;;;;;12.90;1.77;;;14.50;96.20;;;;;;5033742;28;20028;-70
2022/09/17 06:21:21;;;;;;;12.45;1.80;;;14.50;96.00;;;;;;5038843;28;20102;-70
2022/09/17 06:23:48;;;;;;;15.10;1.65;;;14.60;96.00;;;;;;5043309;28;20028;-70
2022/09/17 06:26:14;;;;;;;20.10;1.98;;;14.50;96.00;;;;;;5039596;28;20041;-69
2022/09/17 06:28:40;;;;;;;12.27;2.03;;;14.60;95.80;;;;;;5042409;28;20043;-70
2022/09/17 06:31:08;;;;;;;4.43;1.50;;;14.60;95.80;;;;;;5036594;28;20047;-69
2022/09/17 06:33:35;;;;;;;6.53;1.42;;;14.70;96.00;;;;;;5038174;28;20099;-69
2022/09/17 06:36:04;;;;;;;9.18;2.00;;;14.70;96.10;;;;;;5032706;28;20030;-69
2022/09/17 06:38:32;;;;;;;8.23;1.75;;;14.80;95.70;;;;;;5035615;28;20033;-70
2022/09/17 06:40:58;;;;;;;9.70;1.88;;;14.80;95.70;;;;;;5042658;28;20114;-69
2022/09/17 06:43:25;;;;;;;5.05;1.13;;;14.80;95.60;;;;;;5040128;28;20123;-70
2022/09/17 06:45:55;;;;;;;8.18;1.95;;;14.90;95.60;;;;;;5039876;28;20017;-69
2022/09/17 06:48:22;;;;;;;13.18;1.55;;;14.90;95.50;;;;;;5038558;28;20033;-70
2022/09/17 06:50:48;;;;;;;7.60;1.42;;;15.00;95.40;;;;;;5037445;28;20056;-70
2022/09/17 06:53:14;;;;;;;11.93;2.15;;;15.00;95.20;;;;;;5035550;28;20462;-70
2022/09/17 06:55:40;;;;;;;8.75;1.60;;;15.10;95.10;;;;;;5034627;28;20024;-69
2022/09/17 06:58:06;;;;;;;12.32;1.83;;;15.10;95.10;;;;;;5033501;28;20529;-70
2022/09/17 07:00:32;;;;;;;11.38;1.50;;;15.20;95.00;;;;;;5042160;28;20029;-69
2022/09/17 07:03:00;;;;;;;8.75;1.77;;;15.30;94.60;;;;;;5040524;28;20036;-69
2022/09/17 07:05:27;;;;;;;10.13;2.10;;;15.30;94.60;;;;;;5036786;28;20044;-70
2022/09/17 07:07:53;;;;;;;9.95;1.70;;;15.40;94.30;;;;;;5037149;28;20028;-70
2022/09/17 07:10:21;;;;;;;5.20;1.40;;;15.40;94.20;;;;;;5036527;28;20136;-70
2022/09/17 07:12:47;;;;;;;7.95;1.73;;;15.40;94.30;;;;;;5034454;28;20042;-74
2022/09/17 07:15:14;;;;;;;9.75;1.65;;;15.50;94.30;;;;;;5037655;28;20676;-70
2022/09/17 07:17:43;;;;;;;9.57;1.88;;;15.50;93.80;;;;;;5039312;28;20029;-70
2022/09/17 07:20:09;;;;;;;13.30;2.25;;;15.60;93.70;;;;;;5042154;28;20036;-70
2022/09/17 07:22:35;;;;;;;10.27;2.53;;;15.70;93.30;;;;;;5041389;28;20032;-70
2022/09/17 07:25:01;;;;;;;9.98;1.83;;;15.70;92.60;;;;;;5038263;28;20029;-70
2022/09/17 07:27:28;;;;;;;8.15;1.98;;;15.70;92.50;;;;;;5039269;28;20024;-70
2022/09/17 07:29:54;;;;;;;7.90;1.95;;;15.80;92.70;;;;;;5038752;28;20186;-70
2022/09/17 07:32:20;;;;;;;11.00;2.15;;;15.80;92.60;;;;;;5040238;28;20567;-69
2022/09/17 07:34:48;;;;;;;8.35;1.77;;;15.80;92.50;;;;;;5033715;28;20097;-70
2022/09/17 07:37:14;;;;;;;7.85;1.70;;;15.80;92.40;;;;;;5041043;28;20094;-69
2022/09/17 07:39:41;;;;;;;5.32;1.75;;;15.80;92.10;;;;;;5041994;28;20037;-69
2022/09/17 07:42:07;;;;;;;10.15;1.80;;;15.80;91.80;;;;;;5039509;28;20037;-70
2022/09/17 07:44:33;;;;;;;6.30;1.85;;;15.80;91.90;;;;;;5038757;28;20045;-70
2022/09/17 07:46:59;;;;;;;7.57;1.58;;;15.70;91.90;;;;;;5034762;28;20056;-71
2022/09/17 07:49:25;;;;;;;6.55;1.45;;;15.70;92.00;;;;;;5035373;28;20107;-70
2022/09/17 07:51:51;;;;;;;11.85;2.25;;;15.70;91.80;;;;;;5032667;28;20037;-70
2022/09/17 07:54:16;;;;;;;9.35;1.55;;;15.70;90.90;;;;;;5032657;28;20065;-69
2022/09/17 07:56:43;;;;;;;6.38;1.40;;;15.70;91.10;;;;;;5040847;28;20032;-69
2022/09/17 07:59:09;;;;;;;11.18;1.70;;;15.60;91.30;;;;;;5036494;28;20569;-69
2022/09/17 08:01:35;;;;;;;10.93;1.77;;;15.60;91.10;;;;;;5038608;28;20068;-70
2022/09/17 08:04:02;;;;;;;9.43;1.52;;;15.60;91.40;;;;;;5035824;28;20056;-69
2022/09/17 08:06:28;;;;;;;7.82;1.30;;;15.70;91.80;;;;;;5036890;28;20550;-70
2022/09/17 08:08:55;;;;;;;13.77;1.80;;;15.90;91.20;;;;;;5033713;28;20040;-70
2022/09/17 08:11:24;;;;;;;5.57;1.85;;;15.90;90.80;;;;;;5034614;28;20078;-70
2022/09/17 08:13:52;;;;;;;7.80;1.67;;;16.00;90.60;;;;;;5034691;28;20120;-69
2022/09/17 08:16:19;;;;;;;7.43;1.50;;;15.90;90.50;;;;;;5041291;28;20032;-69
2022/09/17 08:18:46;;;;;;;11.05;1.25;;;16.00;90.30;;;;;;5040544;28;20025;-70
2022/09/17 08:21:14;;;;;;;9.50;1.63;;;15.90;89.20;;;;;;5039337;28;20029;-69
2022/09/17 08:23:41;;;;;;;7.32;1.63;;;15.90;89.50;;;;;;5038553;28;20033;-69
2022/09/17 08:26:15;;;;;;;9.95;1.90;;;15.80;89.40;;;;;;5037362;28;20599;-69
2022/09/17 08:28:48;;;;;;;10.35;1.80;;;15.80;90.60;;;;;;5034847;28;20025;-69
2022/09/17 08:31:15;;;;;;;10.73;2.03;;;15.90;91.00;;;;;;5033322;28;20036;-70
2022/09/17 08:33:42;;;;;;;8.68;1.45;;;16.00;90.60;;;;;;5037545;28;20029;-69
2022/09/17 08:36:10;;;;;;;6.80;1.73;;;16.10;89.50;;;;;;5038644;28;20585;-69
2022/09/17 08:38:37;;;;;;;5.38;1.63;;;16.30;90.40;;;;;;5039166;28;20040;-69
2022/09/17 08:41:09;;;;;;;6.95;1.42;;;16.40;88.20;;;;;;5036185;28;20697;-70
2022/09/17 08:43:51;;;;;;;6.57;1.38;;;16.50;88.20;;;;;;5037464;28;20029;-69
2022/09/17 08:46:17;;;;;;;10.55;1.63;;;16.50;89.00;;;;;;5034307;28;20026;-69
2022/09/17 08:48:55;;;;;;;14.73;2.40;;;16.50;86.20;;;;;;5033492;28;20481;-69
2022/09/17 08:51:42;;;;;;;7.50;1.92;;;16.40;86.40;;;;;;5036824;28;20040;-70
2022/09/17 08:54:17;;;;;;;7.05;2.03;;;16.40;86.60;;;;;;5038754;28;20440;-69
2022/09/17 08:56:48;;;;;;;10.15;2.00;;;16.50;86.40;;;;;;5039168;28;20572;-69
2022/09/17 08:59:34;;;;;;;7.63;1.63;;;16.50;85.80;;;;;;5036639;28;20476;-69
2022/09/17 09:02:41;;;;;;;9.02;1.70;;;16.60;86.20;;;;;;5034275;28;20515;-69
2022/09/17 09:05:12;;;;;;;9.73;1.38;;;16.60;85.20;;;;;;5039701;28;20044;-69
2022/09/17 09:07:51;;;;;;;8.32;1.65;;;16.70;84.40;;;;;;5037919;28;20801;-69
2022/09/17 09:10:31;;;;;;;10.48;1.80;;;16.70;85.40;;;;;;5039772;28;20074;-64
2022/09/17 09:12:59;;;;;;;9.13;1.58;;;16.80;85.70;;;;;;5041412;28;20037;-69
2022/09/17 09:15:47;;;;;;;5.22;1.10;;;17.00;84.00;;;;;;5043901;28;20056;-69
2022/09/17 09:18:18;;;;;;;4.18;1.33;;;17.10;84.00;;;;;;5039969;28;20037;-70
2022/09/17 09:20:58;;;;;;;8.23;1.63;;;17.10;82.40;;;;;;5039792;28;20036;-69
2022/09/17 09:23:31;;;;;;;5.30;1.13;;;17.10;82.80;;;;;;5039181;28;20029;-69
2022/09/17 09:26:12;;;;;;;8.10;1.42;;;17.20;83.80;;;;;;5035140;28;20037;-69
2022/09/17 09:28:47;;;;;;;8.82;1.27;;;17.30;82.40;;;;;;5032444;28;20039;-69
2022/09/17 09:31:50;;;;;;;9.45;1.35;;;17.30;81.40;;;;;;5043797;28;20025;-70
2022/09/17 09:34:16;;;;;;;6.15;1.42;;;17.40;82.60;;;;;;5041848;28;20595;-70
2022/09/17 09:36:43;;;;;;;7.30;1.10;;;17.60;80.10;;;;;;5043174;28;20028;-69
2022/09/17 09:39:18;;;;;;;6.75;1.25;;;17.60;79.80;;;;;;5036599;28;20038;-69
2022/09/17 09:41:47;;;;;;;9.57;1.02;;;17.60;79.50;;;;;;5038752;28;20036;-69
2022/09/17 09:44:15;;;;;;;7.38;1.35;;;17.50;78.80;;;;;;5036848;28;20026;-70
2022/09/17 09:46:44;;;;;;;9.80;1.50;;;17.40;77.90;;;;;;5035355;28;20448;-69
2022/09/17 09:49:44;;;;;;;5.65;1.20;;;17.30;81.10;;;;;;5041745;28;20049;-69
2022/09/17 09:52:18;;;;;;;4.30;0.90;;;17.40;79.20;;;;;;5041137;28;20063;-69
2022/09/17 09:54:58;;;;;;;5.38;1.17;;;17.60;80.20;;;;;;5042238;28;20029;-69
2022/09/17 09:57:41;;;;;;;9.50;1.50;;;17.70;79.70;;;;;;5041968;28;20032;-69
2022/09/17 10:00:36;;;;;;;3.78;1.13;;;17.70;77.50;;;;;;5036265;28;20048;-70
2022/09/17 10:03:05;;;;;;;8.77;1.33;;;17.60;77.60;;;;;;5037949;28;20124;-70
2022/09/17 10:05:30;;;;;;;8.27;1.70;;;17.60;78.60;;;;;;5036664;28;20028;-69
2022/09/17 10:07:56;;;;;;;9.63;1.80;;;17.70;78.40;;;;;;5039679;28;20033;-68
2022/09/17 10:10:22;;;;;;;3.85;0.80;;;18.00;77.20;;;;;;5041507;28;20485;-69
2022/09/17 10:12:48;;;;;;;7.05;1.65;;;18.10;76.20;;;;;;5040918;28;20545;-69
2022/09/17 10:15:26;;;;;;;7.65;1.65;;;18.00;74.80;;;;;;5040778;28;20035;-69
2022/09/17 10:18:14;;;;;;;4.22;0.95;;;18.00;75.20;;;;;;5037577;28;20017;-69
2022/09/17 10:20:53;;;;;;;4.63;1.30;;;18.00;75.60;;;;;;5036643;28;20025;-69
2022/09/17 10:23:25;;;;;;;7.22;1.48;;;18.00;75.70;;;;;;5035633;28;20148;-69
2022/09/17 10:25:54;;;;;;;10.25;1.30;;;18.00;73.70;;;;;;5035676;28;20079;-69
2022/09/17 10:28:44;;;;;;;6.47;1.45;;;18.00;75.80;;;;;;5041413;28;20040;-69
2022/09/17 10:31:10;;;;;;;7.38;1.50;;;18.00;72.90;;;;;;5039724;28;20041;-69
2022/09/17 10:33:50;;;;;;;11.27;1.73;;;18.10;75.00;;;;;;5040221;28;20069;-69
2022/09/17 10:36:33;;;;;;;4.78;1.10;;;18.30;74.20;;;;;;5037764;28;20037;-69
2022/09/17 10:39:26;;;;;;;7.25;0.85;;;18.30;73.80;;;;;;5034830;28;20048;-69
2022/09/17 10:42:12;;;;;;;6.13;1.40;;;18.30;73.10;;;;;;5032660;28;20025;-69
2022/09/17 10:44:49;;;;;;;6.13;1.58;;;18.20;74.20;;;;;;5033511;28;20025;-69
2022/09/17 10:47:29;;;;;;;7.68;1.60;;;18.20;72.50;;;;;;5040812;28;20525;-69
2022/09/17 10:49:56;;;;;;;5.25;1.00;;;18.30;72.80;;;;;;5037817;28;20868;-69
2022/09/17 10:52:35;;;;;;;3.58;1.10;;;18.30;71.70;;;;;;5038694;28;20032;-69
2022/09/17 10:55:25;;;;;;;8.23;1.60;;;18.10;71.80;;;;;;5035333;28;20451;-69
2022/09/17 10:58:07;;;;;;;6.38;1.15;;;17.90;73.90;;;;;;5036020;28;20024;-69
2022/09/17 11:00:51;;;;;;;5.72;1.20;;;17.60;74.00;;;;;;5035099;28;20029;-69
2022/09/17 11:03:32;;;;;;;7.80;1.60;;;17.30;74.40;;;;;;5038349;28;20063;-69
2022/09/17 11:06:07;;;;;;;9.98;1.20;;;17.10;75.60;;;;;;5038690;28;20048;-69
2022/09/17 11:08:41;;;;;;;6.93;1.02;;;17.10;76.00;;;;;;5038034;28;20036;-69
2022/09/17 11:11:26;;;;;;;7.45;1.00;;;17.00;75.30;;;;;;5037085;28;20103;-69
2022/09/17 11:14:20;;;;;;;2.88;0.95;;;17.00;75.50;;;;;;5038141;28;20025;-69
2022/09/17 11:17:24;;;;;;;4.82;0.90;;;16.90;75.10;;;;;;5037245;28;20024;-69
2022/09/17 11:20:17;;;;;;;7.45;1.10;;;17.00;76.20;;;;;;5035468;28;20029;-69
2022/09/17 11:23:21;;;;;;;7.47;1.58;;;17.00;74.80;;;;;;5041524;28;20020;-69
2022/09/17 11:25:57;;;;;;;5.53;1.27;;;17.10;73.20;;;;;;5040376;28;20643;-69
2022/09/17 11:29:11;;;;;;;5.53;1.15;;;17.10;74.10;;;;;;5039729;28;20525;-68
2022/09/17 11:31:59;;;;;;;4.30;0.90;;;17.20;73.30;;;;;;5037169;28;20064;-68
2022/09/17 11:34:25;;;;;;;1.67;0.60;;;17.20;71.30;;;;;;5038321;28;20056;-69
2022/09/17 11:36:54;;;;;;;5.78;1.20;;;17.10;72.40;;;;;;5034556;28;20493;-71
2022/09/17 11:39:42;;;;;;;4.22;1.08;;;17.10;73.60;;;;;;5034875;28;20046;-69
2022/09/17 11:42:17;;;;;;;5.13;1.17;;;17.10;73.00;;;;;;5040313;28;20069;-69
2022/09/17 11:44:55;;;;;;;5.45;0.82;;;17.20;72.20;;;;;;5042007;28;20119;-70
2022/09/17 11:47:44;;;;;;;7.07;1.05;;;17.30;72.80;;;;;;5039286;28;20397;-70
2022/09/17 11:50:36;;;;;;;7.25;1.20;;;17.40;73.80;;;;;;5035503;28;20833;-69
2022/09/17 11:53:05;;;;;;;4.15;0.90;;;17.50;72.10;;;;;;5037844;28;20518;-71
2022/09/17 11:55:43;;;;;;;5.07;1.10;;;17.50;72.70;;;;;;5036823;28;20412;-70
2022/09/17 11:58:14;;;;;;;4.43;0.75;;;17.60;72.80;;;;;;5033321;28;20095;-70
2022/09/17 12:00:51;;;;;;;4.50;1.25;;;17.60;72.20;;;;;;5037870;28;20050;-70
2022/09/17 12:03:27;;;;;;;3.70;0.65;;;17.50;69.40;;;;;;5041241;28;20022;-71
2022/09/17 12:06:02;;;;;;;6.15;0.68;;;17.40;68.50;;;;;;5037297;28;20070;-70
2022/09/17 12:09:04;;;;;;;2.88;0.55;;;17.20;70.20;;;;;;5036759;28;20044;-71
2022/09/17 12:11:40;;;;;;;4.07;1.05;;;17.30;71.00;;;;;;5035810;28;20036;-71
2022/09/17 12:14:12;;;;;;;5.75;0.73;;;17.50;72.00;;;;;;5033453;28;20486;-70
2022/09/17 12:16:42;;;;;;;4.95;0.85;;;17.60;71.50;;;;;;5037687;28;20029;-71
2022/09/17 12:19:33;;;;;;;2.50;0.95;;;17.70;71.40;;;;;;5035245;28;20115;-70
2022/09/17 12:22:21;;;;;;;8.77;0.95;;;17.80;71.50;;;;;;5037236;28;20044;-70
2022/09/17 12:24:50;;;;;;;6.22;1.35;;;17.90;71.20;;;;;;5036373;28;20021;-71
2022/09/17 12:27:41;;;;;;;4.93;1.40;;;17.90;68.50;;;;;;5036242;28;20079;-70
2022/09/17 12:30:07;;;;;;;4.32;1.45;;;18.00;69.20;;;;;;5033777;28;20684;-71
2022/09/17 12:32:42;;;;;;;5.28;0.90;;;18.10;69.40;;;;;;5035791;28;20028;-70
2022/09/17 12:35:32;;;;;;;4.33;0.90;;;18.10;66.90;;;;;;5032112;28;20847;-69
2022/09/17 12:38:25;;;;;;;6.88;1.10;;;18.00;66.60;;;;;;5049916;28;20409;-68
2022/09/17 12:41:06;;;;;;;5.75;1.20;;;17.90;66.40;;;;;;5044700;28;20040;-69
2022/09/17 12:43:47;;;;;;;3.78;1.00;;;17.70;64.30;;;;;;5041572;28;20044;-69
2022/09/17 12:46:24;;;;;;;3.63;0.85;;;17.70;64.30;;;;;;5040502;28;20034;-70
2022/09/17 12:49:23;;;;;;;6.03;1.25;;;17.70;64.20;;;;;;5039321;28;20072;-70
2022/09/17 12:51:54;;;;;;;4.43;0.80;;;17.80;64.00;;;;;;5039437;28;20037;-70
2022/09/17 12:54:38;;;;;;;2.83;0.80;;;17.80;62.00;;;;;;5038032;28;20037;-70
2022/09/17 12:57:12;;;;;;;3.42;0.70;;;17.70;63.40;;;;;;5038352;28;20477;-70
2022/09/17 13:00:01;;;;;;;5.53;1.02;;;17.70;65.30;;;;;;5044215;28;20045;-70
2022/09/17 13:02:42;;;;;;;4.93;0.88;;;17.70;63.50;;;;;;5041442;28;20033;-70
2022/09/17 13:05:28;;;;;;;3.05;0.95;;;17.60;62.60;;;;;;5040035;28;20034;-70
2022/09/17 13:08:03;;;;;;;7.53;1.10;;;17.70;66.00;;;;;;5039751;28;20449;-70
2022/09/17 13:11:03;;;;;;;6.07;1.00;;;17.80;65.00;;;;;;5038764;28;20025;-69
2022/09/17 13:13:41;;;;;;;3.90;1.10;;;17.90;64.00;;;;;;5038562;28;20106;-70
2022/09/17 13:16:13;;;;;;;5.28;1.02;;;18.00;63.90;;;;;;5042302;28;20025;-70